CDT,Max TemperatureF,Mean TemperatureF,Min TemperatureF,Max Dew PointF,MeanDew PointF,Min DewpointF,Max Humidity, Mean Humidity, Min Humidity, Max Sea Level PressureIn, Mean Sea Level PressureIn, Min Sea Level PressureIn, Max VisibilityMiles, Mean VisibilityMiles, Min VisibilityMiles, Max Wind SpeedMPH, Mean Wind SpeedMPH, Max Gust SpeedMPH,PrecipitationIn, CloudCover, Events, WindDirDegrees
2012-10-1,83,69,55,58,54,49,95,61,30,29.86,29.81,29.77,10,10,7,20,7,25,0.00,1,,302
2012-10-2,86,72,58,61,55,51,88,64,31,29.98,29.90,29.84,10,10,2,10,2,,0.02,1,Rain,310
2012-10-3,90,72,54,64,57,53,96,67,29,30.06,30.01,29.96,10,8,1,9,1,16,0.00,1,,151
2012-10-4,90,75,60,69,63,55,87,69,45,30.15,30.10,30.05,10,10,5,13,3,20,0.00,1,,143
2012-10-5,91,76,62,74,64,60,93,71,38,30.13,30.06,29.99,10,7,0,8,2,,0.00,2,Fog,155
2012-10-6,90,75,60,70,64,58,93,71,43,30.06,30.00,29.94,10,8,0,13,2,18,0.00,5,Fog,71
2012-10-7,69,62,55,60,50,46,79,65,49,30.20,30.13,30.07,10,10,7,14,9,20,0.00,7,,8
2012-10-8,75,64,53,54,48,45,88,63,42,30.23,30.16,30.09,10,10,10,12,6,,0.00,6,Rain,17
2012-10-9,86,72,57,66,62,53,88,72,48,30.10,30.04,29.97,10,10,7,12,4,18,0.00,6,,149
2012-10-10,92,78,64,76,68,62,96,78,45,30.12,30.06,30.01,10,8,1,12,3,22,0.00,2,,118
2012-10-11,91,80,68,75,69,65,94,75,43,30.17,30.12,30.09,10,10,5,13,4,18,0.00,4,,128
2012-10-12,92,80,68,76,68,62,97,74,36,30.19,30.14,30.10,10,8,1,12,2,16,0.00,2,,129
2012-10-13,90,78,66,74,68,64,96,74,48,30.11,30.05,29.97,10,8,0,18,5,25,0.00,3,Fog,160
2012-10-14,88,78,68,76,69,66,95,76,50,30.09,30.01,29.97,10,8,1,10,3,16,0.00,4,Rain-Thunderstorm,186
2012-10-15,82,70,59,68,56,47,92,61,30,30.09,30.03,29.97,10,10,10,10,4,,0.00,1,Thunderstorm,26
2012-10-16,83,68,54,65,58,48,97,78,47,30.00,29.91,29.82,10,9,3,9,2,,0.37,3,Rain,127
2012-10-17,90,76,62,76,67,61,99,79,47,29.81,29.73,29.65,10,7,0,14,4,23,0.03,3,Fog,197
2012-10-18,81,74,67,74,57,47,97,58,31,29.96,29.85,29.72,10,8,0,18,6,24,0.00,7,Fog,40
2012-10-19,86,68,49,53,43,30,92,52,13,30.04,29.98,29.93,10,10,7,7,2,,0.00,0,,344
2012-10-20,88,68,49,65,56,42,86,66,36,29.97,29.92,29.87,10,10,5,14,3,22,0.00,3,,161
2012-10-21,90,77,64,75,66,61,93,76,48,29.99,29.94,29.90,10,8,0,14,3,21,0.00,2,Fog,153
2012-10-22,89,78,67,76,67,64,96,72,43,30.04,30.00,29.96,10,9,1,16,5,22,0.00,3,,134
2012-10-23,92,78,63,72,63,58,98,70,33,30.01,29.98,29.94,10,9,1,10,3,,0.00,1,,138
2012-10-24,91,77,63,76,66,62,96,75,38,30.02,29.96,29.91,10,7,0,13,3,18,0.00,4,Fog,132
2012-10-25,93,80,68,75,68,60,94,73,34,29.94,29.89,29.85,10,10,7,12,3,17,0.00,4,,163
2012-10-26,69,62,54,69,55,47,97,79,63,30.19,30.05,29.93,10,9,0,18,7,26,0.00,8,Fog,345
2012-10-27,67,58,50,47,39,34,75,52,31,30.24,30.16,30.08,10,10,10,18,11,25,0.00,3,,357
2012-10-28,69,54,39,41,34,26,81,48,20,30.25,30.20,30.14,10,10,10,13,4,21,0.00,1,,1
2012-10-29,74,56,38,42,31,24,83,49,16,30.29,30.22,30.15,10,10,10,8,2,,0.00,0,,53
2012-10-30,82,60,38,53,43,32,87,60,27,30.15,30.09,30.00,10,10,5,8,1,,0.00,1,,177
2012-10-31,88,68,49,63,54,44,85,63,32,30.07,30.01,29.95,10,8,2,9,1,16,0.00,1,,257